AFL2180 EVRA-ULLI
Flight info
| Callsign | AFL2180 |
|---|---|
| Flight time | N/A |
| Altitude | 33000 |
| Route | VANAG M990 VALGA DCT NUMSU T633 RISAT/K0882F330 T633 KOLET KOLET1B/28L |
| Aircraft | B77W/H-SDE1E2E3FGHIJ2J3J4J5M1RWXY/LB1D1 |
Departure
| Time | N/A |
|---|---|
| Airport | Riga International Airport (EVRA) |
Arrival
| Time | 2026-05-03 20:25 |
|---|---|
| Airport | Pulkovo Airport (ULLI) |
| Time | Latitude | Longitude | Altitude | Speed | Heading |
|---|---|---|---|---|---|
| 2026-05-03 20:15 | 59.45721 | 30.07834 | 8644 ft | 317 kts | 53° |
| 2026-05-03 20:15 | 59.46975 | 30.11389 | 8240 ft | 316 kts | 53° |
| 2026-05-03 20:15 | 59.48198 | 30.14867 | 7923 ft | 313 kts | 53° |
| 2026-05-03 20:15 | 59.49438 | 30.18397 | 7544 ft | 312 kts | 53° |
| 2026-05-03 20:16 | 59.50670 | 30.21909 | 7166 ft | 312 kts | 53° |
| 2026-05-03 20:16 | 59.51895 | 30.25409 | 6803 ft | 310 kts | 53° |
| 2026-05-03 20:16 | 59.53112 | 30.28886 | 6446 ft | 309 kts | 53° |
| 2026-05-03 20:16 | 59.54327 | 30.32366 | 6112 ft | 307 kts | 53° |
| 2026-05-03 20:17 | 59.55502 | 30.35739 | 6078 ft | 293 kts | 53° |
| 2026-05-03 20:17 | 59.56631 | 30.38985 | 5934 ft | 286 kts | 53° |
| 2026-05-03 20:17 | 59.57753 | 30.42210 | 5622 ft | 285 kts | 53° |
| 2026-05-03 20:17 | 59.58858 | 30.45392 | 5313 ft | 283 kts | 53° |
| 2026-05-03 20:18 | 59.59975 | 30.48610 | 5002 ft | 282 kts | 53° |
| 2026-05-03 20:18 | 59.61067 | 30.51763 | 4693 ft | 282 kts | 53° |
| 2026-05-03 20:18 | 59.62170 | 30.54951 | 4400 ft | 280 kts | 53° |
| 2026-05-03 20:18 | 59.63248 | 30.58075 | 4355 ft | 267 kts | 53° |
| 2026-05-03 20:19 | 59.64261 | 30.61013 | 4334 ft | 255 kts | 53° |
| 2026-05-03 20:19 | 59.65370 | 30.63722 | 3903 ft | 259 kts | 35° |
| 2026-05-03 20:19 | 59.66988 | 30.65224 | 3426 ft | 258 kts | 6° |
| 2026-05-03 20:19 | 59.68698 | 30.64963 | 3223 ft | 242 kts | 336° |
| 2026-05-03 20:20 | 59.70080 | 30.63358 | 3179 ft | 225 kts | 320° |
| 2026-05-03 20:20 | 59.71280 | 30.61542 | 3169 ft | 211 kts | 320° |
| 2026-05-03 20:20 | 59.72427 | 30.59884 | 3142 ft | 196 kts | 321° |
| 2026-05-03 20:20 | 59.73512 | 30.58357 | 3092 ft | 187 kts | 321° |
| 2026-05-03 20:21 | 59.74513 | 30.56735 | 2900 ft | 185 kts | 307° |
| 2026-05-03 20:21 | 59.75098 | 30.54564 | 2672 ft | 175 kts | 287° |
| 2026-05-03 20:21 | 59.75429 | 30.52309 | 2426 ft | 171 kts | 284° |
| 2026-05-03 20:21 | 59.75761 | 30.50062 | 2189 ft | 167 kts | 284° |
| 2026-05-03 20:22 | 59.76086 | 30.47895 | 1946 ft | 165 kts | 283° |
| 2026-05-03 20:22 | 59.76410 | 30.45751 | 1764 ft | 157 kts | 283° |
| 2026-05-03 20:22 | 59.76733 | 30.43646 | 1592 ft | 160 kts | 283° |
| 2026-05-03 20:22 | 59.77062 | 30.41523 | 1380 ft | 163 kts | 283° |
| 2026-05-03 20:23 | 59.77366 | 30.39365 | 1208 ft | 161 kts | 282° |
| 2026-05-03 20:23 | 59.77679 | 30.37227 | 993 ft | 160 kts | 284° |
| 2026-05-03 20:23 | 59.78016 | 30.35127 | 806 ft | 163 kts | 285° |
| 2026-05-03 20:23 | 59.78350 | 30.32982 | 561 ft | 163 kts | 282° |
| 2026-05-03 20:24 | 59.78656 | 30.30797 | 359 ft | 165 kts | 282° |
| 2026-05-03 20:24 | 59.78982 | 30.28596 | 165 ft | 166 kts | 283° |
| 2026-05-03 20:24 | 59.79307 | 30.26440 | 96 ft | 155 kts | 283° |
| 2026-05-03 20:24 | 59.79572 | 30.24621 | 95 ft | 111 kts | 287° |
| 2026-05-03 20:25 | 59.79733 | 30.23575 | 95 ft | 32 kts | 289° |
| 2026-05-03 20:25 | 59.79810 | 30.23273 | 95 ft | 21 kts | 305° |
| 2026-05-03 20:25 | 59.79904 | 30.23077 | 95 ft | 11 kts | 320° |
| 2026-05-03 20:25 | 59.79961 | 30.23049 | 95 ft | 6 kts | 22° |
| 2026-05-03 20:26 | 59.79976 | 30.23113 | 95 ft | 5 kts | 87° |
| 2026-05-03 20:26 | 59.79972 | 30.23185 | 95 ft | 6 kts | 100° |
| 2026-05-03 20:26 | 59.79958 | 30.23297 | 95 ft | 10 kts | 105° |
| 2026-05-03 20:26 | 59.79933 | 30.23462 | 95 ft | 14 kts | 107° |
| 2026-05-03 20:27 | 59.79900 | 30.23678 | 95 ft | 19 kts | 106° |
| 2026-05-03 20:27 | 59.79857 | 30.23970 | 95 ft | 25 kts | 106° |
| 2026-05-03 20:27 | 59.79807 | 30.24300 | 95 ft | 23 kts | 107° |
| 2026-05-03 20:27 | 59.79765 | 30.24599 | 95 ft | 21 kts | 106° |
| 2026-05-03 20:28 | 59.79724 | 30.24870 | 95 ft | 19 kts | 106° |
| 2026-05-03 20:28 | 59.79688 | 30.25115 | 95 ft | 17 kts | 106° |
| 2026-05-03 20:28 | 59.79652 | 30.25354 | 95 ft | 19 kts | 106° |
| 2026-05-03 20:28 | 59.79611 | 30.25633 | 95 ft | 22 kts | 106° |
| 2026-05-03 20:29 | 59.79565 | 30.25945 | 95 ft | 23 kts | 106° |
| 2026-05-03 20:29 | 59.79523 | 30.26223 | 95 ft | 13 kts | 107° |
| 2026-05-03 20:29 | 59.79527 | 30.26331 | 95 ft | 7 kts | 39° |
| 2026-05-03 20:29 | 59.79576 | 30.26372 | 95 ft | 7 kts | 17° |
| 2026-05-03 20:30 | 59.79626 | 30.26402 | 95 ft | 8 kts | 16° |
| 2026-05-03 20:30 | 59.79697 | 30.26443 | 95 ft | 13 kts | 16° |
| 2026-05-03 20:30 | 59.79811 | 30.26510 | 95 ft | 20 kts | 16° |
| 2026-05-03 20:30 | 59.79921 | 30.26576 | 95 ft | 14 kts | 17° |
| 2026-05-03 20:31 | 59.79984 | 30.26622 | 95 ft | 7 kts | 49° |
| 2026-05-03 20:31 | 59.79990 | 30.26706 | 95 ft | 4 kts | 101° |
| 2026-05-03 20:31 | 59.79985 | 30.26741 | 95 ft | 3 kts | 107° |